Time;durP1;ratioP1;P1;durP2;ratioP2;P2;SDS_P1;SDS_P2;PMS_P1;PMS_P2;Temp;Humidity;BMP_temperature;BMP_pressure;BME280_temperature;BME280_humidity;BME280_pressure;Samples;Min_cycle;Max_cycle;Signal;HPM_P1;HPM_P2
2021/12/20 00:00:11;;;;;;;4.35;1.40;;;2.50;1.00;;;;;;5042128;28;20725;-82
2021/12/20 00:02:39;;;;;;;2.08;0.98;;;2.50;1.00;;;;;;5036787;28;20224;-80
2021/12/20 00:05:07;;;;;;;4.90;1.77;;;2.50;1.00;;;;;;5035042;28;20244;-79
2021/12/20 00:07:44;;;;;;;4.40;1.73;;;2.50;1.00;;;;;;5032282;28;20218;-83
2021/12/20 00:10:11;;;;;;;3.40;2.10;;;2.50;1.00;;;;;;5035665;28;20217;-81
2021/12/20 00:12:38;;;;;;;6.72;1.55;;;2.50;1.00;;;;;;5061680;28;20285;-80
2021/12/20 00:15:06;;;;;;;3.40;1.50;;;2.50;1.00;;;;;;5066938;28;20236;-80
2021/12/20 00:17:33;;;;;;;4.90;1.42;;;2.40;1.00;;;;;;5061067;28;20221;-81
2021/12/20 00:20:00;;;;;;;3.63;2.60;;;2.50;1.00;;;;;;5056185;28;20234;-80
2021/12/20 00:22:27;;;;;;;4.70;1.98;;;2.50;1.00;;;;;;5031163;28;20371;-80
2021/12/20 00:24:55;;;;;;;4.05;1.88;;;2.40;1.00;;;;;;5027185;28;21017;-79
2021/12/20 00:27:22;;;;;;;6.55;2.60;;;2.40;1.00;;;;;;5030358;28;20284;-80
2021/12/20 00:29:49;;;;;;;3.90;2.17;;;2.40;1.00;;;;;;5027547;28;20346;-80
2021/12/20 00:32:18;;;;;;;4.05;1.85;;;2.40;1.00;;;;;;5028921;28;20331;-82
2021/12/20 00:34:45;;;;;;;7.47;1.63;;;2.40;1.00;;;;;;5028152;28;20295;-83
2021/12/20 00:42:39;;;;;;;6.43;2.00;;;2.30;1.00;;;;;;5050355;28;20232;-80
2021/12/20 00:45:07;;;;;;;5.93;2.05;;;2.30;1.00;;;;;;5034040;28;20244;-81
2021/12/20 00:47:34;;;;;;;6.85;2.30;;;2.20;1.00;;;;;;5030048;28;21027;-82
2021/12/20 00:50:01;;;;;;;4.75;1.67;;;2.20;1.00;;;;;;5037235;28;20221;-80
2021/12/20 00:52:28;;;;;;;5.28;1.70;;;2.20;1.00;;;;;;5039650;28;21302;-81
2021/12/20 00:54:56;;;;;;;5.68;1.77;;;2.20;1.00;;;;;;5048580;28;20340;-80
2021/12/20 00:57:23;;;;;;;6.70;1.88;;;2.20;1.00;;;;;;5044022;28;20285;-79
2021/12/20 00:59:50;;;;;;;4.90;1.50;;;2.20;1.00;;;;;;5051478;28;24608;-80
2021/12/20 01:02:17;;;;;;;5.93;1.90;;;2.20;1.00;;;;;;5063207;28;20259;-78
2021/12/20 01:04:45;;;;;;;7.38;1.98;;;2.20;1.00;;;;;;5051745;28;20281;-80
2021/12/20 01:07:12;;;;;;;5.10;1.50;;;2.10;1.00;;;;;;5077025;28;20214;-79
2021/12/20 01:09:39;;;;;;;3.28;1.67;;;2.10;1.00;;;;;;5042853;28;20307;-81
2021/12/20 01:12:15;;;;;;;3.25;1.60;;;2.10;1.00;;;;;;5044228;28;21038;-84
2021/12/20 01:14:42;;;;;;;2.90;1.40;;;2.10;1.00;;;;;;5031365;28;21025;-83
2021/12/20 01:17:08;;;;;;;3.30;1.42;;;2.10;1.00;;;;;;5027755;28;20221;-82
2021/12/20 01:19:37;;;;;;;3.15;1.75;;;2.10;1.00;;;;;;5030804;28;20230;-80
2021/12/20 01:22:05;;;;;;;4.13;1.85;;;2.10;1.00;;;;;;5022668;28;20242;-81
2021/12/20 01:24:32;;;;;;;2.58;1.20;;;2.10;1.00;;;;;;5042434;28;20265;-80
2021/12/20 01:26:59;;;;;;;3.63;1.38;;;2.00;1.00;;;;;;5045302;28;21168;-79
2021/12/20 01:29:27;;;;;;;2.42;1.50;;;2.10;1.00;;;;;;5038733;28;20248;-80
2021/12/20 01:31:54;;;;;;;5.50;1.80;;;2.10;1.00;;;;;;5045662;28;20340;-83
2021/12/20 01:34:21;;;;;;;5.30;1.80;;;2.00;1.00;;;;;;5040296;28;20232;-80
2021/12/20 01:36:48;;;;;;;4.95;1.65;;;2.00;1.00;;;;;;5039879;28;20261;-81
2021/12/20 01:39:14;;;;;;;2.42;1.25;;;2.00;1.00;;;;;;5028512;28;20230;-80
2021/12/20 01:41:43;;;;;;;3.17;2.15;;;2.00;1.00;;;;;;5030186;28;20309;-80
2021/12/20 01:44:12;;;;;;;4.10;1.40;;;2.00;1.00;;;;;;5031267;28;20309;-81
2021/12/20 01:46:40;;;;;;;6.10;1.98;;;1.90;1.00;;;;;;5026122;28;20646;-81
2021/12/20 01:49:11;;;;;;;4.70;1.70;;;1.90;1.00;;;;;;5031801;28;20218;-82
2021/12/20 01:51:49;;;;;;;2.97;1.50;;;2.00;1.00;;;;;;5047866;28;20234;-79
2021/12/20 01:54:17;;;;;;;3.95;1.60;;;2.00;1.00;;;;;;5029589;28;20321;-82
2021/12/20 01:56:45;;;;;;;2.67;1.40;;;1.90;1.00;;;;;;5031128;28;20316;-82
2021/12/20 01:59:13;;;;;;;2.85;1.45;;;1.90;1.00;;;;;;5044910;28;20756;-81
2021/12/20 02:01:44;;;;;;;3.55;1.40;;;1.90;1.00;;;;;;5031839;28;21099;-81
2021/12/20 02:04:11;;;;;;;5.30;1.75;;;2.00;1.00;;;;;;5038336;28;20234;-83
2021/12/20 02:06:40;;;;;;;3.45;1.10;;;2.00;1.00;;;;;;5067547;28;20213;-79
2021/12/20 02:09:09;;;;;;;2.60;1.25;;;1.90;1.00;;;;;;5063252;28;20224;-81
2021/12/20 02:11:37;;;;;;;3.55;1.63;;;1.90;1.00;;;;;;5033340;28;20249;-83
2021/12/20 02:14:04;;;;;;;4.40;1.45;;;1.90;1.00;;;;;;5030459;28;20249;-82
2021/12/20 02:16:31;;;;;;;4.03;1.55;;;1.90;1.00;;;;;;5031204;28;20321;-81
2021/12/20 02:19:01;;;;;;;6.10;1.67;;;1.90;1.00;;;;;;5050099;28;20209;-80
2021/12/20 02:21:31;;;;;;;4.97;1.73;;;1.90;1.00;;;;;;5034653;28;20794;-81
2021/12/20 02:23:58;;;;;;;2.00;0.93;;;1.80;1.00;;;;;;5038478;28;20291;-79
2021/12/20 02:26:25;;;;;;;4.00;1.23;;;1.80;1.00;;;;;;5033438;28;20329;-82
2021/12/20 02:28:54;;;;;;;3.38;1.27;;;1.80;1.00;;;;;;5033330;28;20251;-81
2021/12/20 02:37:03;;;;;;;3.08;1.33;;;1.80;1.00;;;;;;5044588;28;20263;-81
2021/12/20 02:39:31;;;;;;;3.00;1.30;;;1.70;1.00;;;;;;5024796;28;20230;-80
2021/12/20 02:41:58;;;;;;;7.10;1.50;;;1.70;1.00;;;;;;5029075;28;20229;-81
2021/12/20 02:44:28;;;;;;;4.05;1.60;;;1.70;1.00;;;;;;5028328;28;20265;-81
2021/12/20 02:47:06;;;;;;;4.70;1.85;;;1.70;1.00;;;;;;5029267;28;20233;-80
2021/12/20 02:49:34;;;;;;;2.95;1.00;;;1.70;1.00;;;;;;5032683;28;21740;-83
2021/12/20 02:52:04;;;;;;;2.45;1.20;;;1.70;1.00;;;;;;5026866;28;20255;-82
2021/12/20 02:54:31;;;;;;;4.70;1.60;;;1.70;1.00;;;;;;5029169;28;20256;-83
2021/12/20 02:56:58;;;;;;;4.03;2.25;;;1.70;1.00;;;;;;5045184;28;20210;-80
2021/12/20 02:59:25;;;;;;;3.15;1.20;;;1.70;1.00;;;;;;5054558;28;20221;-81
2021/12/20 03:01:55;;;;;;;5.60;1.42;;;1.70;1.00;;;;;;5042195;28;20233;-81
2021/12/20 03:04:22;;;;;;;3.85;1.20;;;1.70;1.00;;;;;;5027690;28;20225;-82
2021/12/20 03:06:52;;;;;;;4.13;1.30;;;1.70;1.00;;;;;;5033054;28;20211;-79
2021/12/20 03:09:26;;;;;;;2.88;1.15;;;1.70;1.00;;;;;;5053200;28;20212;-78
2021/12/20 03:11:55;;;;;;;3.28;1.13;;;1.60;1.00;;;;;;5045269;28;20237;-83
2021/12/20 03:14:26;;;;;;;5.68;2.00;;;1.60;1.00;;;;;;5030301;28;21028;-82
2021/12/20 03:16:53;;;;;;;4.55;1.55;;;1.60;1.00;;;;;;5029359;28;21240;-80
2021/12/20 03:19:20;;;;;;;4.45;2.53;;;1.60;1.00;;;;;;5025902;28;20225;-79
2021/12/20 03:21:47;;;;;;;3.53;1.65;;;1.60;1.00;;;;;;5027904;28;20324;-80
2021/12/20 03:24:14;;;;;;;4.78;2.08;;;1.50;1.00;;;;;;5026528;28;20323;-79
2021/12/20 03:26:43;;;;;;;4.75;1.38;;;1.50;1.00;;;;;;5041254;28;20228;-79
2021/12/20 03:29:10;;;;;;;2.80;1.38;;;1.50;1.00;;;;;;5035186;28;20585;-80
2021/12/20 03:31:37;;;;;;;5.47;1.67;;;1.50;1.00;;;;;;5032177;28;20321;-79
2021/12/20 03:34:05;;;;;;;5.53;1.55;;;1.50;1.00;;;;;;5043372;28;20339;-80
2021/12/20 03:36:33;;;;;;;8.77;2.60;;;1.50;1.00;;;;;;5037433;28;20297;-81
2021/12/20 03:39:00;;;;;;;4.60;1.80;;;1.50;1.00;;;;;;5027796;28;20229;-81
2021/12/20 03:41:27;;;;;;;4.55;1.77;;;1.50;1.00;;;;;;5028161;28;20217;-83
2021/12/20 03:43:55;;;;;;;3.38;2.60;;;1.40;1.00;;;;;;5033506;28;20236;-81
2021/12/20 03:46:22;;;;;;;6.93;2.20;;;1.40;1.00;;;;;;5049555;28;20229;-82
2021/12/20 03:48:49;;;;;;;5.80;2.05;;;1.40;1.00;;;;;;5049007;28;20701;-81
2021/12/20 03:51:16;;;;;;;3.88;1.40;;;1.40;1.00;;;;;;5028292;28;20632;-81
2021/12/20 03:53:44;;;;;;;3.17;1.80;;;1.40;1.00;;;;;;5025507;28;20245;-81
2021/12/20 03:56:11;;;;;;;3.63;1.70;;;1.40;1.00;;;;;;5029679;28;20837;-81
2021/12/20 03:58:38;;;;;;;6.95;1.85;;;1.40;1.00;;;;;;5035763;28;20268;-83
2021/12/20 04:01:09;;;;;;;6.05;2.08;;;1.40;1.00;;;;;;5038333;28;20746;-80
2021/12/20 04:03:37;;;;;;;7.93;2.40;;;1.40;1.00;;;;;;5054716;28;20260;-81
2021/12/20 04:06:04;;;;;;;4.80;1.52;;;1.40;1.00;;;;;;5060720;28;20357;-80
2021/12/20 04:08:31;;;;;;;4.05;1.52;;;1.40;1.00;;;;;;5064020;28;20217;-80
2021/12/20 04:10:58;;;;;;;8.02;2.80;;;1.40;1.00;;;;;;5060371;28;20234;-79
2021/12/20 04:13:26;;;;;;;3.28;1.58;;;1.40;1.00;;;;;;5052455;28;20230;-80
2021/12/20 04:15:54;;;;;;;4.72;1.73;;;1.30;1.00;;;;;;5050357;28;20393;-80
2021/12/20 04:18:23;;;;;;;6.50;1.75;;;1.30;1.00;;;;;;5055971;28;21697;-80
2021/12/20 04:20:50;;;;;;;7.25;1.77;;;1.30;1.00;;;;;;5061315;28;20796;-80
2021/12/20 04:23:17;;;;;;;4.22;1.67;;;1.30;1.00;;;;;;5053868;28;20234;-80
2021/12/20 04:25:44;;;;;;;4.22;1.75;;;1.30;1.00;;;;;;5054041;28;20253;-79
2021/12/20 04:28:10;;;;;;;4.78;1.73;;;1.30;1.00;;;;;;5061136;28;20233;-82
2021/12/20 04:30:37;;;;;;;3.85;1.70;;;1.30;1.00;;;;;;5047912;28;20229;-80
2021/12/20 04:33:04;;;;;;;4.70;1.50;;;1.20;1.00;;;;;;5030214;28;20271;-82
2021/12/20 04:35:33;;;;;;;5.47;2.10;;;1.30;1.00;;;;;;5039430;28;20302;-81
2021/12/20 04:38:01;;;;;;;3.45;2.25;;;1.20;1.00;;;;;;5042146;28;20513;-80
2021/12/20 04:40:28;;;;;;;8.85;3.38;;;1.20;1.00;;;;;;5045698;28;20225;-81
2021/12/20 04:42:57;;;;;;;10.48;3.22;;;1.20;1.00;;;;;;5033300;28;21000;-79
2021/12/20 04:45:25;;;;;;;6.55;2.20;;;1.20;1.00;;;;;;5034932;28;20324;-81
2021/12/20 04:47:52;;;;;;;3.40;1.70;;;1.30;1.00;;;;;;5033288;28;20241;-81
2021/12/20 04:50:20;;;;;;;3.65;2.10;;;1.30;1.00;;;;;;5041508;28;20240;-80
2021/12/20 04:52:49;;;;;;;9.82;2.42;;;1.30;1.00;;;;;;5046804;28;20727;-80
2021/12/20 04:55:16;;;;;;;2.70;1.60;;;1.30;1.00;;;;;;5045859;28;20280;-83
2021/12/20 04:57:45;;;;;;;7.38;1.73;;;1.30;1.00;;;;;;5043121;28;20226;-82
2021/12/20 05:00:14;;;;;;;2.70;1.98;;;1.30;1.00;;;;;;5057849;28;20285;-79
2021/12/20 05:02:41;;;;;;;8.70;2.13;;;1.30;1.00;;;;;;5060370;28;20238;-79
2021/12/20 05:05:09;;;;;;;4.18;1.73;;;1.20;1.00;;;;;;5071930;28;20229;-78
2021/12/20 05:07:38;;;;;;;6.38;2.00;;;1.30;1.00;;;;;;5067961;28;20220;-79
2021/12/20 05:10:11;;;;;;;3.40;2.00;;;1.30;1.00;;;;;;5056260;28;20232;-80
2021/12/20 05:12:38;;;;;;;7.80;2.92;;;1.30;1.00;;;;;;5040197;28;20225;-81
2021/12/20 05:15:05;;;;;;;7.90;2.20;;;1.20;1.00;;;;;;5035013;28;20236;-77
2021/12/20 05:17:32;;;;;;;6.70;2.53;;;1.30;1.00;;;;;;5041254;28;20297;-78
2021/12/20 05:19:59;;;;;;;4.28;1.75;;;1.30;1.00;;;;;;5037207;28;20245;-78
2021/12/20 05:22:26;;;;;;;6.95;2.58;;;1.30;1.00;;;;;;5039984;28;20460;-81
2021/12/20 05:24:52;;;;;;;7.40;3.50;;;1.30;1.00;;;;;;5043314;28;20221;-80
2021/12/20 05:27:21;;;;;;;5.97;1.90;;;1.20;1.00;;;;;;5034441;28;20295;-81
2021/12/20 05:29:49;;;;;;;5.57;1.52;;;1.30;1.00;;;;;;5035158;28;20269;-81
2021/12/20 05:32:17;;;;;;;7.88;2.63;;;1.20;1.00;;;;;;5041207;28;20301;-85
2021/12/20 05:34:44;;;;;;;4.88;2.25;;;1.20;1.00;;;;;;5046775;28;20280;-84
2021/12/20 05:37:13;;;;;;;5.15;2.20;;;1.20;1.00;;;;;;5040996;28;20332;-83
2021/12/20 05:39:41;;;;;;;5.30;2.03;;;1.20;1.00;;;;;;5048444;28;20261;-84
2021/12/20 05:42:09;;;;;;;4.20;2.03;;;1.20;1.00;;;;;;5039930;28;20298;-87
2021/12/20 05:44:37;;;;;;;5.07;2.90;;;1.20;1.00;;;;;;5041683;28;20327;-87
2021/12/20 05:47:04;;;;;;;3.63;2.10;;;1.20;1.00;;;;;;5044133;28;20229;-86
2021/12/20 05:49:32;;;;;;;5.30;1.80;;;1.10;1.00;;;;;;5045530;28;20295;-85
2021/12/20 05:51:59;;;;;;;6.50;2.35;;;1.10;1.00;;;;;;5047273;28;20245;-86
2021/12/20 05:54:27;;;;;;;8.20;2.10;;;1.20;1.00;;;;;;5042004;28;20242;-86
2021/12/20 05:56:54;;;;;;;5.30;2.25;;;1.10;1.00;;;;;;5044905;28;20237;-84
2021/12/20 05:59:21;;;;;;;6.65;2.47;;;1.10;1.00;;;;;;5036745;28;20282;-86
2021/12/20 06:01:49;;;;;;;4.28;2.25;;;1.10;1.00;;;;;;5046715;28;20279;-83
2021/12/20 06:04:16;;;;;;;3.85;1.77;;;1.10;1.00;;;;;;5053335;28;20319;-83
2021/12/20 06:06:43;;;;;;;8.82;2.92;;;1.10;1.00;;;;;;5067745;28;20209;-78
2021/12/20 06:09:09;;;;;;;5.20;1.73;;;1.10;1.00;;;;;;5051641;28;20264;-80
2021/12/20 06:11:36;;;;;;;3.42;2.10;;;1.10;1.00;;;;;;5044558;28;21210;-80
2021/12/20 06:14:03;;;;;;;2.55;1.75;;;1.20;1.00;;;;;;5060487;28;20379;-80
2021/12/20 06:16:30;;;;;;;5.45;2.67;;;1.10;1.00;;;;;;5046050;28;20238;-80
2021/12/20 06:19:00;;;;;;;6.65;2.88;;;1.10;1.00;;;;;;5065823;28;20233;-79
2021/12/20 06:21:27;;;;;;;5.75;2.63;;;1.10;1.00;;;;;;5061464;28;20285;-79
2021/12/20 06:23:53;;;;;;;12.30;5.15;;;1.10;1.00;;;;;;5062894;28;20241;-79
2021/12/20 06:26:23;;;;;;;13.23;3.10;;;1.10;1.00;;;;;;5073965;28;20285;-80
2021/12/20 06:28:50;;;;;;;3.97;2.78;;;1.10;1.00;;;;;;5044287;28;20225;-80
2021/12/20 06:31:18;;;;;;;4.53;2.08;;;1.20;1.00;;;;;;5040268;28;20234;-77
2021/12/20 06:33:45;;;;;;;7.75;2.72;;;1.20;1.00;;;;;;5037581;28;20217;-79
2021/12/20 06:36:13;;;;;;;3.92;1.98;;;1.20;1.00;;;;;;5049578;28;20323;-83
2021/12/20 06:38:45;;;;;;;8.68;3.00;;;1.20;1.00;;;;;;5054017;28;20213;-78
2021/12/20 06:41:20;;;;;;;7.28;3.72;;;1.20;1.00;;;;;;5048270;28;20229;-82
2021/12/20 06:43:47;;;;;;;4.78;2.22;;;1.30;1.00;;;;;;5044320;28;20264;-82
2021/12/20 06:46:14;;;;;;;10.65;3.58;;;1.30;1.00;;;;;;5045323;28;20294;-80
2021/12/20 06:48:42;;;;;;;12.00;3.05;;;1.30;1.00;;;;;;5046376;28;20328;-82
2021/12/20 06:51:09;;;;;;;8.02;2.35;;;1.40;1.00;;;;;;5051109;28;20238;-81
2021/12/20 06:53:37;;;;;;;5.88;2.40;;;1.40;1.00;;;;;;5052906;28;20300;-79
2021/12/20 06:56:05;;;;;;;7.25;2.50;;;1.40;1.00;;;;;;5059254;28;20247;-80
2021/12/20 06:58:32;;;;;;;5.43;2.38;;;1.50;1.00;;;;;;5040587;28;20301;-80
2021/12/20 07:00:58;;;;;;;8.82;3.20;;;1.40;1.00;;;;;;5036507;28;21071;-79
2021/12/20 07:03:25;;;;;;;8.05;3.08;;;1.40;1.00;;;;;;5043675;28;20227;-80
2021/12/20 07:05:52;;;;;;;5.18;2.70;;;1.40;1.00;;;;;;5053189;28;20226;-76
2021/12/20 07:08:19;;;;;;;9.60;3.35;;;1.40;1.00;;;;;;5076776;28;20218;-76
2021/12/20 07:10:47;;;;;;;10.10;3.60;;;1.40;1.00;;;;;;5068252;28;21337;-76
2021/12/20 07:13:14;;;;;;;6.05;2.83;;;1.40;1.00;;;;;;5069510;28;20243;-76
2021/12/20 07:15:40;;;;;;;6.40;2.50;;;1.40;1.00;;;;;;5058534;28;20509;-75
2021/12/20 07:18:07;;;;;;;5.65;2.88;;;1.40;1.00;;;;;;5049481;28;20294;-76
2021/12/20 07:20:34;;;;;;;8.50;3.20;;;1.40;1.00;;;;;;5035109;28;20313;-80
2021/12/20 07:23:01;;;;;;;5.65;2.50;;;1.30;1.00;;;;;;5028522;28;20316;-80
2021/12/20 07:25:28;;;;;;;6.10;3.22;;;1.40;1.00;;;;;;5052508;28;20275;-77
2021/12/20 07:27:56;;;;;;;9.55;3.20;;;1.30;1.00;;;;;;5051937;28;20222;-77
2021/12/20 07:30:22;;;;;;;7.78;2.95;;;1.30;1.00;;;;;;5057123;28;21419;-78
2021/12/20 07:32:49;;;;;;;8.10;2.70;;;1.30;1.00;;;;;;5050808;28;20235;-75
2021/12/20 07:35:17;;;;;;;9.40;3.45;;;1.30;1.00;;;;;;5047900;28;20233;-78
2021/12/20 07:37:44;;;;;;;9.52;2.60;;;1.30;1.00;;;;;;5052399;28;20231;-77
2021/12/20 07:40:12;;;;;;;8.63;3.70;;;1.30;1.00;;;;;;5045231;28;20465;-77
2021/12/20 07:42:39;;;;;;;7.15;3.10;;;1.30;1.00;;;;;;5037267;28;20246;-78
2021/12/20 07:45:09;;;;;;;7.47;2.35;;;1.30;1.00;;;;;;5036655;28;20910;-75
2021/12/20 07:47:38;;;;;;;6.45;2.90;;;1.40;1.00;;;;;;5065872;28;20241;-87
2021/12/20 07:50:26;;;;;;;10.00;5.25;;;1.40;1.00;;;;;;5065807;28;20264;-83
2021/12/20 07:59:28;;;;;;;7.13;3.47;;;1.50;1.00;;;;;;5047991;28;20730;-77
2021/12/20 08:01:56;;;;;;;5.70;3.35;;;1.50;1.00;;;;;;5057166;28;20222;-79
2021/12/20 08:04:23;;;;;;;9.15;3.63;;;1.60;1.00;;;;;;5048371;28;20228;-80
2021/12/20 08:06:50;;;;;;;6.45;4.10;;;1.60;1.00;;;;;;5044009;28;20264;-81
2021/12/20 08:09:18;;;;;;;11.02;3.95;;;1.70;1.00;;;;;;5057392;28;20217;-78
2021/12/20 08:11:45;;;;;;;7.15;3.78;;;1.70;1.00;;;;;;5058050;28;20425;-77
2021/12/20 08:14:11;;;;;;;10.07;3.50;;;1.80;1.00;;;;;;5052386;28;20209;-77
2021/12/20 08:16:38;;;;;;;12.43;3.33;;;1.90;1.00;;;;;;5046592;28;20279;-79
2021/12/20 08:19:08;;;;;;;7.35;3.15;;;2.30;1.00;;;;;;5041166;28;20226;-82
2021/12/20 08:21:35;;;;;;;9.70;8.90;;;2.80;1.00;;;;;;5046106;28;20281;-81
2021/12/20 08:24:02;;;;;;;14.27;4.20;;;3.30;1.00;;;;;;5038853;28;20888;-78
2021/12/20 08:26:29;;;;;;;7.43;3.00;;;3.80;1.00;;;;;;5026253;28;20249;-78
2021/12/20 08:28:55;;;;;;;11.65;3.90;;;3.90;1.00;;;;;;5031110;28;20230;-80
2021/12/20 08:31:22;;;;;;;13.05;5.65;;;4.10;1.00;;;;;;5030293;28;20233;-80
2021/12/20 08:33:50;;;;;;;13.02;4.30;;;4.20;1.00;;;;;;5029433;28;20218;-77
2021/12/20 08:36:18;;;;;;;10.50;4.88;;;4.10;1.00;;;;;;5029976;28;20316;-78
2021/12/20 08:38:45;;;;;;;7.32;3.63;;;3.80;1.00;;;;;;5022776;28;20238;-79
2021/12/20 08:41:13;;;;;;;9.18;3.88;;;3.60;1.00;;;;;;5030074;28;20253;-77
2021/12/20 08:43:40;;;;;;;6.68;2.92;;;3.30;1.00;;;;;;5026838;28;20658;-80
2021/12/20 08:46:09;;;;;;;7.95;3.80;;;3.10;1.00;;;;;;5028330;28;20718;-81
2021/12/20 08:48:36;;;;;;;9.30;4.10;;;3.00;1.00;;;;;;5023642;28;20293;-80
2021/12/20 08:51:03;;;;;;;5.90;3.65;;;3.00;1.00;;;;;;5040329;28;20227;-85
2021/12/20 08:53:34;;;;;;;7.43;4.05;;;2.90;1.00;;;;;;5041335;28;20321;-83
2021/12/20 08:56:06;;;;;;;6.85;3.53;;;2.90;1.00;;;;;;5044976;28;21414;-83
2021/12/20 08:58:33;;;;;;;6.35;3.63;;;2.80;1.00;;;;;;5043352;28;20424;-82
2021/12/20 09:01:05;;;;;;;6.72;4.13;;;2.90;1.00;;;;;;5039912;28;20301;-81
2021/12/20 09:03:35;;;;;;;11.65;4.82;;;2.90;1.00;;;;;;5045349;28;23712;-81
2021/12/20 09:06:08;;;;;;;5.00;2.90;;;2.90;1.00;;;;;;5044622;28;20297;-85
2021/12/20 09:08:38;;;;;;;4.95;2.85;;;2.90;1.00;;;;;;5066099;28;20266;-81
2021/12/20 09:11:05;;;;;;;8.65;3.38;;;3.10;1.00;;;;;;5052995;28;20257;-81
2021/12/20 09:13:32;;;;;;;7.53;3.40;;;3.30;1.00;;;;;;5031171;28;20221;-81
2021/12/20 09:16:00;;;;;;;10.10;3.03;;;3.50;1.00;;;;;;5031251;28;20230;-81
2021/12/20 09:18:31;;;;;;;8.40;2.78;;;3.50;1.00;;;;;;5036113;28;20296;-83
2021/12/20 09:21:01;;;;;;;8.35;3.38;;;3.60;1.00;;;;;;5033782;28;21638;-81
2021/12/20 09:23:30;;;;;;;11.75;3.65;;;3.70;1.00;;;;;;5035211;28;20233;-81
2021/12/20 09:25:58;;;;;;;11.15;4.72;;;3.90;1.00;;;;;;5031270;28;20743;-82
2021/12/20 09:28:25;;;;;;;6.80;3.10;;;4.20;1.00;;;;;;5030474;28;20297;-80
2021/12/20 09:30:52;;;;;;;7.70;2.90;;;4.40;1.00;;;;;;5034798;28;20238;-81
2021/12/20 09:33:18;;;;;;;10.25;4.35;;;4.30;1.00;;;;;;5041164;28;20275;-83
2021/12/20 09:35:46;;;;;;;13.18;3.50;;;4.30;1.00;;;;;;5041620;28;20221;-83
2021/12/20 09:38:16;;;;;;;8.55;4.55;;;4.60;1.00;;;;;;5031512;28;20277;-83
2021/12/20 09:41:02;;;;;;;8.23;3.35;;;4.80;1.00;;;;;;5034100;28;20229;-83
2021/12/20 09:43:30;;;;;;;13.45;4.40;;;4.90;1.00;;;;;;5037053;28;20214;-83
2021/12/20 09:45:58;;;;;;;14.15;3.35;;;5.10;1.00;;;;;;5040128;28;20225;-85
2021/12/20 09:48:25;;;;;;;11.30;6.13;;;5.10;1.00;;;;;;5034701;28;20256;-84
2021/12/20 09:50:52;;;;;;;7.22;3.60;;;4.90;1.00;;;;;;5047624;28;20490;-83
2021/12/20 09:53:19;;;;;;;7.47;3.33;;;4.80;1.00;;;;;;5053862;28;20314;-83
2021/12/20 09:55:49;;;;;;;9.40;3.50;;;5.20;1.00;;;;;;5039759;28;20240;-82
2021/12/20 09:58:17;;;;;;;6.70;3.97;;;6.10;1.00;;;;;;5036535;28;20251;-83
2021/12/20 10:00:49;;;;;;;10.35;4.13;;;6.60;1.00;;;;;;5035219;28;20234;-83
2021/12/20 10:03:19;;;;;;;9.43;3.60;;;6.90;1.00;;;;;;5061565;28;20251;-81
2021/12/20 10:05:46;;;;;;;8.73;3.38;;;7.30;1.00;;;;;;5042006;28;20240;-82
2021/12/20 10:08:20;;;;;;;7.50;4.07;;;7.50;1.00;;;;;;5042557;28;20257;-84
2021/12/20 10:10:49;;;;;;;6.47;3.28;;;7.70;1.00;;;;;;5041799;28;20234;-84
2021/12/20 10:13:24;;;;;;;6.90;3.20;;;7.10;1.00;;;;;;5063100;28;20223;-82
2021/12/20 10:15:53;;;;;;;7.38;4.97;;;6.90;1.00;;;;;;5055707;28;20229;-84
2021/12/20 10:18:20;;;;;;;5.32;2.50;;;7.00;1.00;;;;;;5047408;28;20237;-82
2021/12/20 10:20:50;;;;;;;5.35;2.30;;;7.50;1.00;;;;;;5041683;28;20299;-84
2021/12/20 10:23:20;;;;;;;8.55;4.05;;;7.90;1.00;;;;;;5054583;28;20217;-85
2021/12/20 10:25:49;;;;;;;4.68;2.80;;;8.10;1.00;;;;;;5055348;28;20256;-83
2021/12/20 10:28:19;;;;;;;7.18;3.22;;;8.10;1.00;;;;;;5061931;28;20222;-83
2021/12/20 10:30:48;;;;;;;7.95;2.95;;;8.20;1.00;;;;;;5056653;28;20234;-82
2021/12/20 10:33:19;;;;;;;6.13;4.15;;;7.80;1.00;;;;;;5054635;28;20390;-84
2021/12/20 10:35:49;;;;;;;12.10;2.90;;;8.10;1.00;;;;;;5057770;28;20218;-83
2021/12/20 10:38:37;;;;;;;6.60;3.33;;;8.80;1.00;;;;;;5051258;28;20395;-83
2021/12/20 10:41:14;;;;;;;11.52;4.50;;;8.40;1.00;;;;;;5049029;28;20285;-85
2021/12/20 10:43:50;;;;;;;10.25;3.15;;;8.60;1.00;;;;;;5057790;28;20227;-84
2021/12/20 10:46:19;;;;;;;11.50;3.17;;;9.00;1.00;;;;;;5044260;28;20230;-83
2021/12/20 10:48:55;;;;;;;3.75;2.10;;;9.60;1.00;;;;;;5037858;28;20244;-82
2021/12/20 10:51:26;;;;;;;9.43;3.97;;;9.60;1.00;;;;;;5038918;28;20239;-84
2021/12/20 10:53:59;;;;;;;8.82;2.38;;;9.80;1.00;;;;;;5043506;28;20263;-84
2021/12/20 10:56:27;;;;;;;4.35;2.17;;;9.50;1.00;;;;;;5046764;28;20233;-83
2021/12/20 10:58:56;;;;;;;6.90;2.97;;;8.80;1.00;;;;;;5051401;28;20247;-84
2021/12/20 11:04:11;;;;;;;7.93;2.70;;;7.70;1.00;;;;;;5035464;28;20259;-83
2021/12/20 11:06:56;;;;;;;15.43;4.32;;;7.50;1.00;;;;;;5043993;28;20226;-84
2021/12/20 11:09:23;;;;;;;5.82;2.72;;;8.20;1.00;;;;;;5040598;28;20221;-85
2021/12/20 11:11:52;;;;;;;8.20;3.33;;;8.50;1.00;;;;;;5051520;28;20226;-80
2021/12/20 11:14:21;;;;;;;8.30;2.30;;;8.60;1.00;;;;;;5053682;28;20212;-78
2021/12/20 11:16:50;;;;;;;12.43;4.15;;;9.00;1.00;;;;;;5046057;28;20227;-82
2021/12/20 11:19:30;;;;;;;6.97;2.88;;;8.80;1.00;;;;;;5031984;28;20265;-81
2021/12/20 11:22:04;;;;;;;6.07;2.50;;;8.80;1.00;;;;;;5045578;28;20231;-80
2021/12/20 11:24:34;;;;;;;3.60;1.75;;;8.80;1.00;;;;;;5034823;28;20228;-80
2021/12/20 11:27:03;;;;;;;6.40;2.92;;;8.90;1.00;;;;;;5033519;28;20222;-80
2021/12/20 11:29:30;;;;;;;11.75;6.20;;;9.40;1.00;;;;;;5043377;28;20344;-80
2021/12/20 11:31:58;;;;;;;6.10;3.10;;;9.80;1.00;;;;;;5036742;28;20228;-80
2021/12/20 11:34:26;;;;;;;11.27;3.72;;;9.70;1.00;;;;;;5020466;28;20513;-80
2021/12/20 11:36:54;;;;;;;5.10;2.63;;;9.50;1.00;;;;;;5028392;28;20229;-79
2021/12/20 11:39:21;;;;;;;5.43;3.63;;;9.60;1.00;;;;;;5030483;28;20344;-78
2021/12/20 11:41:47;;;;;;;9.95;4.13;;;10.10;1.00;;;;;;5035124;28;20231;-78
2021/12/20 11:44:17;;;;;;;7.10;3.67;;;10.70;1.00;;;;;;5042397;28;20334;-79
2021/12/20 11:47:08;;;;;;;8.20;3.40;;;11.10;1.00;;;;;;5052190;28;20436;-79
2021/12/20 11:49:37;;;;;;;7.90;3.55;;;11.00;1.00;;;;;;5052763;28;20421;-78
2021/12/20 11:52:08;;;;;;;9.57;3.37;;;10.20;1.00;;;;;;5049665;28;20238;-78
2021/12/20 11:54:36;;;;;;;7.30;2.83;;;10.40;1.00;;;;;;5051858;28;20523;-79
2021/12/20 11:57:04;;;;;;;10.60;3.40;;;10.60;1.00;;;;;;5048506;28;21017;-78
2021/12/20 11:59:49;;;;;;;7.18;2.90;;;10.60;1.00;;;;;;5042569;28;20317;-78
2021/12/20 12:02:24;;;;;;;6.43;2.70;;;10.50;1.00;;;;;;5034066;28;20233;-78
2021/12/20 12:05:01;;;;;;;4.73;2.10;;;9.90;1.00;;;;;;5033461;28;20459;-80
2021/12/20 12:07:30;;;;;;;6.78;2.65;;;9.90;1.00;;;;;;5035033;28;20509;-79
2021/12/20 12:09:58;;;;;;;4.53;2.63;;;10.00;1.00;;;;;;5031243;28;20246;-78
2021/12/20 12:12:25;;;;;;;8.02;3.30;;;9.80;1.00;;;;;;5034803;28;20322;-79
2021/12/20 12:15:04;;;;;;;8.10;2.75;;;9.30;1.00;;;;;;5035366;28;20237;-80
2021/12/20 12:17:50;;;;;;;7.13;4.45;;;8.90;1.00;;;;;;5063413;28;20228;-79
2021/12/20 12:20:46;;;;;;;6.45;2.45;;;9.40;1.00;;;;;;5053842;28;20881;-78
2021/12/20 12:23:16;;;;;;;8.10;3.53;;;9.90;1.00;;;;;;5038389;28;21135;-79
2021/12/20 12:25:45;;;;;;;6.43;2.10;;;9.90;1.00;;;;;;5034007;28;20321;-79
2021/12/20 12:28:13;;;;;;;9.10;3.97;;;9.50;1.00;;;;;;5032115;28;20532;-80
2021/12/20 12:30:55;;;;;;;5.33;2.10;;;9.60;1.00;;;;;;5034692;28;20241;-80
2021/12/20 12:33:40;;;;;;;6.13;2.70;;;10.40;1.00;;;;;;5040349;28;20814;-80
2021/12/20 12:36:24;;;;;;;13.77;3.70;;;12.00;1.00;;;;;;5037428;28;20603;-80
2021/12/20 12:38:55;;;;;;;6.20;3.20;;;14.10;1.00;;;;;;5031619;28;20481;-81
2021/12/20 12:41:25;;;;;;;5.87;3.20;;;15.80;1.00;;;;;;5037330;28;20432;-80
2021/12/20 12:44:09;;;;;;;4.87;2.37;;;16.20;1.00;;;;;;5042634;28;20456;-80
2021/12/20 12:46:53;;;;;;;7.50;3.30;;;16.60;1.00;;;;;;5040321;28;20547;-79
2021/12/20 12:49:44;;;;;;;5.60;2.60;;;17.20;1.00;;;;;;5030883;28;21073;-78
2021/12/20 12:52:32;;;;;;;5.73;2.77;;;16.70;1.00;;;;;;5041489;28;20449;-79
2021/12/20 12:55:02;;;;;;;5.20;3.37;;;16.00;1.00;;;;;;5028954;28;20456;-83
2021/12/20 12:57:31;;;;;;;8.23;3.10;;;15.80;1.00;;;;;;5033189;28;20445;-80
2021/12/20 13:00:15;;;;;;;4.60;2.40;;;14.60;1.00;;;;;;5033596;28;20458;-79
2021/12/20 13:02:43;;;;;;;5.50;2.90;;;13.60;1.00;;;;;;5033784;28;20424;-77
2021/12/20 13:05:16;;;;;;;10.33;3.43;;;13.60;1.00;;;;;;5034294;28;20417;-79
2021/12/20 13:07:49;;;;;;;5.20;2.87;;;14.60;1.00;;;;;;5039625;28;20471;-79
2021/12/20 13:10:21;;;;;;;12.87;3.63;;;16.00;1.00;;;;;;5033696;28;20425;-80
2021/12/20 13:12:55;;;;;;;8.60;2.93;;;15.90;1.00;;;;;;5044529;28;20439;-80
2021/12/20 13:15:28;;;;;;;5.40;3.40;;;14.70;1.00;;;;;;5040899;28;20876;-81
2021/12/20 13:17:59;;;;;;;6.67;3.40;;;12.70;1.00;;;;;;5041836;28;20650;-78
2021/12/20 13:20:34;;;;;;;8.70;5.60;;;11.40;1.00;;;;;;5044336;28;20433;-79
2021/12/20 13:23:06;;;;;;;6.57;3.97;;;10.30;1.00;;;;;;5042448;28;21198;-78
2021/12/20 13:25:40;;;;;;;11.93;3.53;;;9.40;1.00;;;;;;5048907;28;20238;-78
2021/12/20 13:28:09;;;;;;;7.53;3.60;;;8.80;1.00;;;;;;5044313;28;20449;-79
2021/12/20 13:30:39;;;;;;;7.88;3.20;;;8.20;1.00;;;;;;5040333;28;20381;-81
2021/12/20 13:33:06;;;;;;;8.88;2.92;;;7.70;1.00;;;;;;5060898;28;21188;-79
2021/12/20 13:35:34;;;;;;;5.30;2.65;;;7.30;1.00;;;;;;5059722;28;20234;-81